Time;durP1;ratioP1;P1;durP2;ratioP2;P2;SDS_P1;SDS_P2;PMS_P1;PMS_P2;Temp;Humidity;BMP_temperature;BMP_pressure;BME280_temperature;BME280_humidity;BME280_pressure;Samples;Min_cycle;Max_cycle;Signal;HPM_P1;HPM_P2
2022/01/06 00:01:20;;;;;;;14.00;3.00;;;1.60;99.90;;;;;;5110056;28;20183;-68
2022/01/06 00:03:46;;;;;;;11.03;2.50;;;1.60;99.90;;;;;;5096307;28;20742;-65
2022/01/06 00:06:12;;;;;;;13.43;3.00;;;1.70;99.90;;;;;;5098607;28;20171;-66
2022/01/06 00:08:39;;;;;;;13.27;3.53;;;1.50;99.90;;;;;;5098600;28;20282;-66
2022/01/06 00:11:08;;;;;;;10.60;2.77;;;1.50;99.90;;;;;;5090077;28;20245;-66
2022/01/06 00:24:27;;;;;;;15.43;3.63;;;1.20;99.90;;;;;;5103123;28;20195;-69
2022/01/06 00:26:53;;;;;;;17.53;3.70;;;1.20;99.90;;;;;;5091119;28;20172;-69
2022/01/06 00:29:20;;;;;;;12.33;3.70;;;1.20;99.90;;;;;;5096969;28;20219;-69
2022/01/06 00:31:46;;;;;;;10.70;3.37;;;1.20;99.90;;;;;;5091014;28;20207;-69
2022/01/06 00:34:12;;;;;;;14.60;2.90;;;1.20;99.90;;;;;;5090802;28;20190;-69
2022/01/06 00:36:42;;;;;;;9.57;3.43;;;1.10;99.90;;;;;;5094402;28;20255;-69
2022/01/06 00:39:10;;;;;;;11.60;2.83;;;1.00;99.90;;;;;;5094496;28;20222;-71
2022/01/06 00:41:37;;;;;;;8.40;3.03;;;1.10;99.90;;;;;;5102306;28;20695;-71
2022/01/06 00:44:04;;;;;;;10.80;2.97;;;1.10;99.90;;;;;;5097100;28;20197;-71
2022/01/06 00:46:30;;;;;;;9.90;3.33;;;1.10;99.90;;;;;;5092116;28;20176;-71
2022/01/06 00:48:56;;;;;;;13.53;3.87;;;1.10;99.90;;;;;;5105562;28;20199;-71
2022/01/06 00:51:23;;;;;;;19.50;3.90;;;1.10;99.90;;;;;;5093999;28;20187;-71
2022/01/06 00:53:49;;;;;;;18.60;4.03;;;1.00;99.90;;;;;;5090791;28;20167;-71
2022/01/06 00:56:14;;;;;;;19.27;3.27;;;1.10;99.90;;;;;;5090856;28;20180;-71
2022/01/06 00:58:40;;;;;;;14.13;3.07;;;1.00;99.90;;;;;;5089439;28;20704;-69
2022/01/06 01:01:06;;;;;;;10.33;2.93;;;1.10;99.90;;;;;;5107173;28;20621;-69
2022/01/06 01:03:32;;;;;;;8.70;2.40;;;1.10;99.90;;;;;;5099884;28;20188;-63
2022/01/06 01:05:58;;;;;;;11.03;2.87;;;0.80;99.90;;;;;;5097260;28;20209;-68
2022/01/06 01:08:25;;;;;;;9.77;2.47;;;1.00;99.90;;;;;;5111116;28;20687;-68
2022/01/06 01:10:55;;;;;;;11.83;2.73;;;0.90;99.90;;;;;;5100475;28;20172;-68
2022/01/06 01:13:28;;;;;;;10.67;3.03;;;0.80;99.90;;;;;;5110975;28;20178;-68
2022/01/06 01:15:58;;;;;;;14.37;3.97;;;0.80;99.90;;;;;;5096121;28;20199;-68
2022/01/06 01:18:24;;;;;;;12.80;3.30;;;0.90;99.90;;;;;;5090368;28;20302;-68
2022/01/06 01:20:52;;;;;;;20.30;4.03;;;0.80;99.90;;;;;;5094427;28;20274;-68
2022/01/06 01:23:23;;;;;;;11.33;3.70;;;0.70;99.90;;;;;;5100480;28;20232;-68
2022/01/06 01:25:49;;;;;;;10.27;3.53;;;0.60;99.90;;;;;;5110914;28;20229;-69
2022/01/06 01:28:16;;;;;;;13.80;3.83;;;0.70;99.90;;;;;;5099765;28;20191;-69
2022/01/06 01:33:40;;;;;;;15.33;4.23;;;0.70;99.90;;;;;;5079787;28;20259;-69
2022/01/06 01:36:05;;;;;;;14.53;3.90;;;0.90;99.90;;;;;;5092308;28;20258;-69
2022/01/06 01:38:32;;;;;;;16.47;3.70;;;0.80;99.90;;;;;;5090213;28;20223;-69
2022/01/06 01:40:57;;;;;;;17.27;4.00;;;0.80;99.90;;;;;;5106686;28;20653;-68
2022/01/06 01:43:23;;;;;;;19.00;4.10;;;0.80;99.90;;;;;;5094407;28;20187;-69
2022/01/06 01:45:56;;;;;;;11.53;3.30;;;0.80;99.90;;;;;;5093997;28;20172;-69
2022/01/06 01:48:28;;;;;;;12.60;3.20;;;0.90;99.90;;;;;;5098462;28;20183;-69
2022/01/06 01:50:54;;;;;;;9.90;2.90;;;0.90;99.90;;;;;;5107915;28;20167;-69
2022/01/06 01:53:19;;;;;;;11.77;3.50;;;0.90;99.90;;;;;;5114484;28;20186;-69
2022/01/06 01:55:45;;;;;;;15.80;3.40;;;0.90;99.90;;;;;;5108949;28;20256;-70
2022/01/06 01:58:12;;;;;;;13.57;3.47;;;1.00;99.90;;;;;;5093937;28;20211;-69
2022/01/06 02:00:38;;;;;;;18.53;3.00;;;1.10;99.90;;;;;;5106535;28;20209;-69
2022/01/06 02:03:04;;;;;;;15.93;4.40;;;1.10;99.90;;;;;;5111008;28;20209;-69
2022/01/06 02:05:30;;;;;;;18.67;3.70;;;1.20;99.90;;;;;;5112445;27;20179;-69
2022/01/06 02:08:00;;;;;;;14.60;3.47;;;1.20;99.90;;;;;;5095589;28;20183;-68
2022/01/06 02:10:28;;;;;;;17.23;4.20;;;1.30;99.90;;;;;;5093548;28;20176;-68
2022/01/06 02:12:56;;;;;;;13.17;3.40;;;1.40;99.90;;;;;;5097160;28;20221;-69
2022/01/06 02:15:22;;;;;;;10.93;3.30;;;1.30;99.90;;;;;;5093576;28;20254;-69
2022/01/06 02:17:49;;;;;;;12.07;3.57;;;1.40;99.90;;;;;;5093431;28;20227;-68
2022/01/06 02:20:16;;;;;;;8.67;3.60;;;1.50;99.90;;;;;;5093391;28;20678;-68
2022/01/06 02:22:43;;;;;;;11.50;3.57;;;1.40;99.90;;;;;;5098461;28;20183;-67
2022/01/06 02:25:18;;;;;;;14.20;3.43;;;1.40;99.90;;;;;;5094625;28;20195;-67
2022/01/06 02:27:46;;;;;;;14.20;3.87;;;1.50;99.90;;;;;;5110617;28;20186;-68
2022/01/06 02:30:13;;;;;;;12.17;4.10;;;1.50;99.90;;;;;;5103865;28;20163;-68
2022/01/06 02:32:39;;;;;;;11.37;3.70;;;1.60;99.90;;;;;;5112775;28;20175;-68
2022/01/06 02:35:14;;;;;;;12.43;3.33;;;1.60;99.90;;;;;;5113228;28;20176;-68
2022/01/06 02:37:41;;;;;;;10.77;3.80;;;1.80;99.90;;;;;;5092790;28;20214;-68
2022/01/06 02:40:10;;;;;;;15.97;3.87;;;1.80;99.90;;;;;;5093116;28;20168;-68
2022/01/06 02:42:44;;;;;;;14.93;4.10;;;1.90;99.90;;;;;;5091712;28;20638;-68
2022/01/06 02:45:11;;;;;;;14.33;3.57;;;1.80;99.90;;;;;;5102869;28;20645;-68
2022/01/06 02:47:37;;;;;;;12.00;3.73;;;1.80;99.90;;;;;;5092706;28;20180;-67
2022/01/06 02:50:05;;;;;;;12.80;3.20;;;1.80;99.90;;;;;;5092808;28;20220;-68
2022/01/06 02:52:31;;;;;;;14.87;3.90;;;1.90;99.90;;;;;;5098869;28;20236;-67
2022/01/06 02:54:57;;;;;;;13.53;3.53;;;1.90;99.90;;;;;;5092777;28;20176;-67
2022/01/06 02:57:22;;;;;;;11.13;4.10;;;1.90;99.90;;;;;;5092519;28;20223;-67
2022/01/06 02:59:48;;;;;;;13.10;4.37;;;1.80;99.90;;;;;;5092738;28;20216;-68
2022/01/06 03:02:14;;;;;;;18.60;4.27;;;2.80;99.90;;;;;;5102736;28;20179;-68
2022/01/06 03:04:40;;;;;;;16.87;4.43;;;1.80;99.90;;;;;;5095296;28;20179;-68
2022/01/06 03:07:07;;;;;;;10.47;4.10;;;1.80;99.90;;;;;;5108212;28;20634;-68
2022/01/06 03:09:39;;;;;;;13.67;4.10;;;1.80;99.90;;;;;;5111102;28;20178;-69
2022/01/06 03:12:10;;;;;;;14.80;4.70;;;1.80;99.90;;;;;;5098343;28;20182;-69
2022/01/06 03:14:37;;;;;;;24.83;4.73;;;1.80;99.90;;;;;;5095699;28;20184;-69
2022/01/06 03:17:04;;;;;;;15.43;4.47;;;1.90;99.90;;;;;;5092174;28;21392;-69
2022/01/06 03:19:29;;;;;;;14.07;5.30;;;1.90;99.90;;;;;;5110641;28;20187;-68
2022/01/06 03:21:55;;;;;;;14.47;4.07;;;2.00;99.90;;;;;;5097975;28;20221;-70
2022/01/06 03:24:21;;;;;;;13.97;4.53;;;1.80;99.90;;;;;;5108460;28;20175;-70
2022/01/06 03:26:47;;;;;;;14.77;4.07;;;1.70;99.90;;;;;;5094070;28;20179;-70
2022/01/06 03:29:13;;;;;;;8.90;3.77;;;1.70;99.90;;;;;;5092031;28;20186;-71
2022/01/06 03:31:40;;;;;;;16.97;4.60;;;1.90;99.90;;;;;;5098001;28;20175;-70
2022/01/06 03:34:08;;;;;;;15.57;5.87;;;1.90;99.90;;;;;;5107137;28;20175;-69
2022/01/06 03:36:34;;;;;;;13.87;4.83;;;3.10;99.90;;;;;;5111632;28;20168;-70
2022/01/06 03:39:00;;;;;;;16.10;5.33;;;2.00;99.90;;;;;;5112083;28;20287;-70
2022/01/06 03:41:26;;;;;;;17.63;5.07;;;2.00;99.90;;;;;;5101506;28;20258;-70
2022/01/06 03:43:51;;;;;;;12.93;4.90;;;2.10;99.90;;;;;;5103933;28;20179;-69
2022/01/06 03:46:17;;;;;;;16.57;5.40;;;2.00;99.90;;;;;;5095677;28;20187;-69
2022/01/06 03:48:43;;;;;;;25.67;6.47;;;2.10;99.90;;;;;;5091869;28;20186;-69
2022/01/06 03:51:09;;;;;;;15.53;5.80;;;2.10;99.90;;;;;;5100296;28;20512;-69
2022/01/06 03:53:34;;;;;;;17.00;5.80;;;2.20;99.90;;;;;;5110878;28;20167;-70
2022/01/06 03:56:00;;;;;;;19.77;6.27;;;2.20;99.90;;;;;;5091580;28;20183;-68
2022/01/06 03:58:26;;;;;;;18.63;6.10;;;2.20;99.90;;;;;;5089956;28;20208;-63
2022/01/06 04:00:51;;;;;;;17.80;5.90;;;2.10;99.90;;;;;;5091355;28;20225;-70
2022/01/06 04:03:17;;;;;;;19.73;5.43;;;2.20;99.90;;;;;;5101955;28;20187;-70
2022/01/06 04:05:43;;;;;;;22.77;6.10;;;2.20;99.90;;;;;;5110138;28;20200;-70
2022/01/06 04:08:09;;;;;;;19.07;5.33;;;2.20;99.90;;;;;;5110202;28;20225;-70
2022/01/06 04:10:34;;;;;;;12.70;4.83;;;2.40;99.90;;;;;;5101814;28;20179;-70
2022/01/06 04:13:00;;;;;;;14.03;5.13;;;2.30;99.90;;;;;;5094871;28;20180;-70
2022/01/06 04:15:26;;;;;;;16.03;5.20;;;2.30;99.90;;;;;;5091150;28;20976;-70
2022/01/06 04:17:52;;;;;;;17.07;5.40;;;2.20;99.90;;;;;;5090900;28;20227;-70
2022/01/06 04:20:18;;;;;;;10.77;4.43;;;2.30;99.90;;;;;;5092777;28;20672;-70
2022/01/06 04:22:44;;;;;;;17.13;5.00;;;2.30;99.90;;;;;;5108831;28;20179;-71
2022/01/06 04:25:11;;;;;;;22.10;5.07;;;2.30;99.90;;;;;;5091098;28;20242;-70
2022/01/06 04:27:37;;;;;;;22.27;5.80;;;2.40;99.90;;;;;;5091108;28;20176;-69
2022/01/06 04:30:07;;;;;;;24.50;5.53;;;2.40;99.90;;;;;;5091086;28;20255;-70
2022/01/06 04:32:35;;;;;;;22.43;6.13;;;2.40;99.90;;;;;;5091240;28;20480;-70
2022/01/06 04:35:01;;;;;;;17.50;5.47;;;2.30;99.90;;;;;;5093312;28;20175;-70
2022/01/06 04:37:28;;;;;;;17.43;5.87;;;2.30;99.90;;;;;;5100784;28;20211;-70
2022/01/06 04:39:53;;;;;;;17.37;5.07;;;2.30;99.90;;;;;;5111270;28;20182;-70
2022/01/06 04:42:19;;;;;;;14.87;5.43;;;2.30;99.90;;;;;;5090964;28;20171;-70
2022/01/06 04:44:45;;;;;;;17.40;5.63;;;2.40;99.90;;;;;;5090877;28;20251;-72
2022/01/06 04:47:11;;;;;;;14.77;5.47;;;2.50;99.90;;;;;;5090647;28;20248;-71
2022/01/06 04:49:36;;;;;;;16.43;5.60;;;2.50;99.90;;;;;;5098443;28;20313;-70
2022/01/06 04:52:02;;;;;;;20.37;5.93;;;2.50;99.90;;;;;;5103542;28;20175;-70
2022/01/06 04:54:28;;;;;;;12.17;5.20;;;2.60;99.90;;;;;;5091202;28;20273;-70
2022/01/06 04:56:54;;;;;;;14.23;5.60;;;2.60;99.90;;;;;;5105654;28;20179;-69
2022/01/06 04:59:20;;;;;;;17.10;4.73;;;2.60;99.90;;;;;;5090862;28;20223;-69
2022/01/06 05:01:46;;;;;;;20.07;5.70;;;2.60;99.90;;;;;;5092368;28;20689;-70
2022/01/06 05:04:12;;;;;;;20.13;5.90;;;2.70;99.90;;;;;;5092738;28;20630;-70
2022/01/06 05:06:37;;;;;;;16.60;5.80;;;2.70;99.90;;;;;;5109319;28;20568;-68
2022/01/06 05:09:03;;;;;;;19.40;5.87;;;2.70;99.90;;;;;;5111122;28;20264;-68
2022/01/06 05:11:29;;;;;;;21.47;6.23;;;2.70;99.90;;;;;;5096985;28;20179;-68
2022/01/06 05:13:55;;;;;;;15.43;5.47;;;2.60;99.90;;;;;;5094504;28;20176;-68
2022/01/06 05:16:21;;;;;;;14.00;5.00;;;2.30;99.90;;;;;;5105571;28;20183;-68
2022/01/06 05:18:47;;;;;;;19.50;5.30;;;2.60;99.90;;;;;;5096971;28;20218;-68
2022/01/06 05:21:13;;;;;;;12.43;5.20;;;2.60;99.90;;;;;;5105132;28;20171;-68
2022/01/06 05:23:40;;;;;;;19.27;4.73;;;2.60;99.90;;;;;;5115031;28;20176;-69
2022/01/06 05:26:07;;;;;;;14.97;4.50;;;2.60;99.90;;;;;;5104167;28;20206;-69
2022/01/06 05:28:33;;;;;;;23.40;5.13;;;2.80;99.90;;;;;;5094295;28;20194;-70
2022/01/06 05:30:59;;;;;;;17.50;3.90;;;2.80;99.90;;;;;;5094375;28;20176;-62
2022/01/06 05:33:26;;;;;;;12.17;3.10;;;2.80;99.90;;;;;;5097853;28;20204;-63
2022/01/06 05:35:52;;;;;;;17.37;4.10;;;2.90;99.90;;;;;;5102864;28;20194;-68
2022/01/06 05:38:18;;;;;;;12.03;3.53;;;3.00;99.90;;;;;;5114308;28;20677;-69
2022/01/06 05:40:43;;;;;;;14.87;3.27;;;3.00;99.90;;;;;;5110651;28;20179;-69
2022/01/06 05:43:09;;;;;;;21.13;3.63;;;3.00;99.90;;;;;;5105364;28;20168;-68
2022/01/06 05:45:35;;;;;;;13.87;3.30;;;3.00;99.90;;;;;;5113759;28;20586;-65
2022/01/06 05:48:01;;;;;;;14.03;4.50;;;3.00;99.90;;;;;;5103284;28;20175;-68
2022/01/06 05:50:27;;;;;;;18.93;4.33;;;2.90;99.90;;;;;;5093843;28;20176;-68
2022/01/06 05:52:54;;;;;;;10.33;4.70;;;2.90;99.90;;;;;;5111988;28;20175;-68
2022/01/06 05:55:21;;;;;;;11.77;4.43;;;2.90;99.90;;;;;;5111251;28;20175;-68
2022/01/06 05:57:48;;;;;;;13.53;3.70;;;2.90;99.90;;;;;;5095115;28;20295;-68
2022/01/06 06:00:14;;;;;;;13.10;3.83;;;3.00;99.90;;;;;;5104544;28;20176;-68
2022/01/06 06:02:40;;;;;;;13.30;3.47;;;3.00;99.90;;;;;;5093720;28;20263;-69
2022/01/06 06:05:06;;;;;;;20.23;4.33;;;3.10;99.90;;;;;;5108767;28;20685;-68
2022/01/06 06:07:32;;;;;;;15.40;3.50;;;3.00;99.90;;;;;;5094087;28;20198;-67
2022/01/06 06:09:57;;;;;;;7.67;2.07;;;3.10;99.90;;;;;;5093553;28;20542;-68
2022/01/06 06:12:23;;;;;;;11.90;2.37;;;3.20;99.90;;;;;;5098221;28;20249;-69
2022/01/06 06:14:49;;;;;;;18.40;2.20;;;3.20;99.90;;;;;;5093527;28;20711;-69
2022/01/06 06:17:14;;;;;;;12.03;2.17;;;3.30;99.90;;;;;;5093338;28;20175;-69
2022/01/06 06:19:40;;;;;;;13.43;2.63;;;3.40;99.90;;;;;;5096639;28;20187;-68
2022/01/06 06:22:06;;;;;;;12.47;2.07;;;3.50;99.90;;;;;;5093272;28;20555;-68
2022/01/06 06:24:33;;;;;;;11.23;2.83;;;3.50;99.90;;;;;;5095689;28;20290;-69
2022/01/06 06:26:59;;;;;;;10.27;1.80;;;3.70;99.90;;;;;;5108746;28;20254;-68
2022/01/06 06:29:25;;;;;;;10.93;2.03;;;3.70;99.90;;;;;;5093089;28;20168;-69
2022/01/06 06:31:50;;;;;;;9.33;1.80;;;3.80;99.90;;;;;;5105222;28;20530;-68
2022/01/06 06:34:16;;;;;;;9.97;1.93;;;3.80;99.90;;;;;;5111859;28;20182;-69
2022/01/06 06:36:42;;;;;;;15.50;2.27;;;3.90;99.90;;;;;;5104237;28;20692;-68
2022/01/06 06:39:08;;;;;;;4.20;1.90;;;3.90;99.90;;;;;;5099347;28;20293;-69
2022/01/06 06:41:34;;;;;;;11.87;1.87;;;3.90;99.90;;;;;;5093108;28;20200;-69
2022/01/06 06:43:59;;;;;;;9.10;1.67;;;3.80;99.90;;;;;;5096597;28;20633;-69
2022/01/06 06:46:25;;;;;;;6.00;2.00;;;3.80;99.90;;;;;;5103821;28;20198;-68
2022/01/06 06:48:52;;;;;;;6.50;1.90;;;3.80;99.90;;;;;;5112539;28;20183;-69
2022/01/06 06:51:17;;;;;;;5.80;1.67;;;3.80;99.90;;;;;;5111455;27;20167;-70
2022/01/06 06:53:43;;;;;;;12.70;2.03;;;3.90;99.90;;;;;;5099834;28;20180;-70
2022/01/06 06:56:09;;;;;;;6.80;1.77;;;4.00;99.90;;;;;;5092826;28;20175;-70
2022/01/06 06:58:35;;;;;;;16.53;2.33;;;3.90;99.90;;;;;;5111471;28;20565;-70
2022/01/06 07:01:01;;;;;;;4.90;1.97;;;3.90;99.90;;;;;;5096804;28;20172;-70
2022/01/06 07:03:27;;;;;;;8.83;2.10;;;3.80;99.90;;;;;;5093634;28;20261;-69
2022/01/06 07:05:52;;;;;;;15.23;1.93;;;3.80;99.90;;;;;;5092529;28;20203;-70
2022/01/06 07:08:18;;;;;;;12.57;1.80;;;3.70;99.90;;;;;;5092376;28;20180;-70
2022/01/06 07:10:44;;;;;;;5.07;1.23;;;3.60;99.90;;;;;;5092428;28;20194;-69
2022/01/06 07:13:10;;;;;;;13.53;2.13;;;3.70;99.90;;;;;;5091454;28;20199;-69
2022/01/06 07:15:41;;;;;;;12.07;1.83;;;3.50;99.90;;;;;;5092447;28;20172;-70
2022/01/06 07:18:07;;;;;;;6.10;1.83;;;3.40;99.90;;;;;;5095724;28;20218;-68
2022/01/06 07:20:33;;;;;;;8.40;2.00;;;3.40;99.90;;;;;;5094224;28;20223;-69
2022/01/06 07:22:59;;;;;;;8.17;2.27;;;3.30;99.90;;;;;;5109009;28;20637;-69
2022/01/06 07:25:25;;;;;;;11.30;1.90;;;3.30;99.90;;;;;;5094495;28;20210;-69
2022/01/06 07:27:51;;;;;;;8.93;2.20;;;3.20;99.90;;;;;;5091932;28;20207;-69
2022/01/06 07:30:16;;;;;;;10.67;2.00;;;3.10;99.90;;;;;;5091862;28;20649;-69
2022/01/06 07:32:48;;;;;;;13.07;2.33;;;3.10;99.90;;;;;;5109861;28;20744;-69
2022/01/06 07:35:15;;;;;;;6.73;1.47;;;3.00;99.90;;;;;;5099259;28;20197;-69
2022/01/06 07:37:40;;;;;;;15.70;2.17;;;3.00;99.90;;;;;;5100191;28;20219;-69
2022/01/06 07:40:08;;;;;;;15.07;2.40;;;3.00;99.90;;;;;;5112018;28;20201;-67
2022/01/06 07:42:35;;;;;;;7.90;2.30;;;3.10;99.90;;;;;;5110349;28;20201;-67
2022/01/06 07:45:02;;;;;;;13.70;2.07;;;3.00;99.90;;;;;;5102001;28;20626;-68
2022/01/06 07:47:29;;;;;;;8.43;2.30;;;2.90;99.90;;;;;;5107388;28;20171;-67
2022/01/06 07:49:55;;;;;;;7.13;1.70;;;2.80;99.90;;;;;;5109476;28;20262;-67
2022/01/06 07:52:22;;;;;;;12.90;2.40;;;2.80;99.90;;;;;;5110238;28;20171;-67
2022/01/06 07:54:48;;;;;;;10.87;2.60;;;2.70;99.90;;;;;;5108335;28;20167;-67
2022/01/06 07:57:14;;;;;;;11.23;2.97;;;2.60;99.90;;;;;;5090112;28;20207;-66
2022/01/06 07:59:40;;;;;;;9.07;3.50;;;2.60;99.90;;;;;;5091332;28;20175;-65
2022/01/06 08:02:08;;;;;;;16.40;6.23;;;2.60;99.90;;;;;;5104367;28;20315;-71
2022/01/06 08:04:34;;;;;;;7.67;3.00;;;2.60;99.90;;;;;;5100194;28;20175;-67
2022/01/06 08:07:01;;;;;;;9.20;2.60;;;2.60;99.90;;;;;;5091420;28;20172;-69
2022/01/06 08:09:26;;;;;;;8.27;2.10;;;2.70;99.90;;;;;;5102521;28;20292;-70
2022/01/06 08:11:52;;;;;;;11.40;2.33;;;2.70;99.90;;;;;;5110986;28;20253;-69
2022/01/06 08:14:18;;;;;;;8.57;2.17;;;2.80;99.90;;;;;;5102611;28;20179;-69
2022/01/06 08:16:44;;;;;;;10.57;2.17;;;2.90;99.90;;;;;;5093224;28;20189;-69
2022/01/06 08:19:10;;;;;;;10.30;1.90;;;2.90;99.90;;;;;;5098805;28;20214;-68
2022/01/06 08:21:36;;;;;;;7.53;1.90;;;3.10;99.90;;;;;;5109300;28;20178;-68
2022/01/06 08:24:02;;;;;;;9.90;2.30;;;3.10;99.90;;;;;;5101310;28;20182;-68
2022/01/06 08:26:28;;;;;;;12.03;2.37;;;3.20;99.90;;;;;;5092542;28;20172;-68
2022/01/06 08:28:54;;;;;;;10.20;2.20;;;3.30;99.90;;;;;;5109478;28;20183;-71
2022/01/06 08:31:19;;;;;;;10.33;2.37;;;3.40;99.90;;;;;;5098084;28;20186;-70
2022/01/06 08:33:46;;;;;;;7.53;2.43;;;3.50;99.90;;;;;;5097922;28;20185;-68
2022/01/06 08:36:12;;;;;;;6.87;2.03;;;3.60;99.90;;;;;;5111584;28;20193;-68
2022/01/06 08:38:38;;;;;;;11.50;2.00;;;3.90;99.90;;;;;;5100953;28;20257;-69
2022/01/06 08:41:04;;;;;;;8.93;2.00;;;4.20;99.90;;;;;;5090858;28;20261;-69
2022/01/06 08:43:30;;;;;;;12.97;2.33;;;3.80;99.90;;;;;;5090748;28;20179;-69
2022/01/06 08:45:57;;;;;;;7.40;2.00;;;3.90;99.90;;;;;;5090707;28;20274;-69
2022/01/06 08:48:24;;;;;;;11.67;2.33;;;3.90;99.90;;;;;;5090656;28;20230;-70
2022/01/06 08:50:50;;;;;;;7.73;2.00;;;4.00;99.90;;;;;;5090647;28;20172;-71
2022/01/06 08:53:16;;;;;;;14.00;2.70;;;4.00;99.90;;;;;;5090791;28;20530;-70
2022/01/06 08:55:46;;;;;;;18.13;2.67;;;4.00;99.90;;;;;;5090987;28;20206;-69
2022/01/06 08:58:12;;;;;;;13.10;2.73;;;4.10;99.90;;;;;;5096603;28;20235;-69
2022/01/06 09:00:39;;;;;;;12.60;2.70;;;4.40;99.90;;;;;;5110905;28;20254;-70
2022/01/06 09:03:06;;;;;;;13.87;2.80;;;4.80;99.90;;;;;;5096518;28;20254;-69
2022/01/06 09:05:33;;;;;;;7.93;2.67;;;5.00;99.90;;;;;;5090835;28;20167;-67
2022/01/06 09:07:59;;;;;;;12.70;2.97;;;4.80;99.90;;;;;;5090509;28;20172;-68
2022/01/06 09:10:29;;;;;;;12.07;2.90;;;4.70;99.90;;;;;;5090564;28;20191;-68
2022/01/06 09:12:56;;;;;;;15.43;3.43;;;4.70;99.90;;;;;;5097565;28;20179;-68
2022/01/06 09:15:22;;;;;;;13.93;3.30;;;4.80;99.90;;;;;;5099754;28;20248;-67
2022/01/06 09:17:48;;;;;;;16.23;3.10;;;4.70;99.90;;;;;;5091612;28;20214;-64
2022/01/06 09:20:14;;;;;;;7.97;2.70;;;4.70;99.90;;;;;;5109592;28;20168;-64
2022/01/06 09:22:44;;;;;;;9.90;2.73;;;4.60;99.90;;;;;;5110132;28;20171;-64
2022/01/06 09:25:12;;;;;;;9.30;2.47;;;4.50;99.90;;;;;;5110716;28;20277;-60
2022/01/06 09:27:39;;;;;;;15.23;2.80;;;4.50;99.90;;;;;;5110522;28;20168;-59
2022/01/06 09:30:06;;;;;;;8.93;2.00;;;4.40;99.90;;;;;;5109439;28;20262;-59
2022/01/06 09:32:32;;;;;;;10.37;2.00;;;4.40;99.90;;;;;;5110716;28;20625;-59
2022/01/06 09:34:59;;;;;;;13.30;2.10;;;4.30;99.90;;;;;;5096886;28;20176;-60
2022/01/06 09:37:25;;;;;;;9.83;2.30;;;4.40;99.90;;;;;;5094773;28;20276;-59
2022/01/06 09:39:51;;;;;;;9.93;1.73;;;4.30;99.90;;;;;;5090144;28;20180;-66
2022/01/06 09:42:18;;;;;;;7.37;1.90;;;4.30;99.90;;;;;;5095122;28;20201;-67
2022/01/06 09:44:47;;;;;;;5.07;1.87;;;4.30;99.90;;;;;;5110696;28;20171;-69
2022/01/06 09:47:13;;;;;;;10.67;2.40;;;4.30;99.90;;;;;;5097993;28;20230;-64
2022/01/06 09:49:40;;;;;;;9.00;2.13;;;4.40;99.90;;;;;;5099485;28;20179;-64
2022/01/06 09:52:07;;;;;;;14.43;2.07;;;4.40;99.90;;;;;;5090123;28;20176;-65
2022/01/06 09:54:34;;;;;;;7.67;1.97;;;4.50;99.90;;;;;;5091244;28;20172;-64
2022/01/06 09:57:00;;;;;;;9.63;2.23;;;4.60;99.90;;;;;;5094000;28;20259;-64
2022/01/06 09:59:26;;;;;;;7.47;2.00;;;4.60;99.90;;;;;;5089896;28;20299;-64
2022/01/06 10:01:52;;;;;;;6.73;1.70;;;4.60;99.90;;;;;;5111566;28;20171;-63
2022/01/06 10:04:21;;;;;;;11.00;1.63;;;4.70;99.90;;;;;;5113847;28;20198;-63
2022/01/06 10:07:02;;;;;;;8.87;1.77;;;4.60;99.90;;;;;;5113959;28;20264;-63
2022/01/06 10:09:27;;;;;;;12.43;2.50;;;4.70;99.90;;;;;;5112066;28;20159;-63
2022/01/06 10:11:57;;;;;;;6.93;2.07;;;4.60;99.90;;;;;;5114387;28;20272;-63
2022/01/06 10:14:32;;;;;;;15.00;2.17;;;4.70;99.90;;;;;;5101560;28;20168;-63
2022/01/06 10:16:59;;;;;;;6.17;1.70;;;4.60;99.90;;;;;;5093491;28;20669;-62
2022/01/06 10:19:25;;;;;;;5.50;1.50;;;4.70;99.90;;;;;;5104219;28;20681;-63
2022/01/06 10:21:57;;;;;;;11.13;2.60;;;4.80;99.90;;;;;;5113460;28;20167;-63
2022/01/06 10:24:28;;;;;;;10.27;2.47;;;4.80;99.90;;;;;;5113648;27;20205;-63
2022/01/06 10:27:01;;;;;;;11.70;2.33;;;4.70;99.90;;;;;;5113607;28;20629;-63
2022/01/06 10:29:29;;;;;;;10.73;2.23;;;4.70;99.90;;;;;;5113435;28;20178;-63
2022/01/06 10:32:05;;;;;;;11.40;2.53;;;4.70;99.90;;;;;;5113448;28;20168;-62
2022/01/06 10:34:33;;;;;;;5.97;1.50;;;4.80;99.90;;;;;;5113424;28;20182;-63
2022/01/06 10:37:00;;;;;;;9.73;1.90;;;4.90;99.90;;;;;;5113176;28;20215;-63
2022/01/06 10:39:27;;;;;;;5.10;1.80;;;5.00;99.90;;;;;;5113327;28;20199;-62
2022/01/06 10:41:53;;;;;;;10.07;2.00;;;5.00;99.90;;;;;;5113264;28;20264;-63
2022/01/06 10:44:19;;;;;;;15.50;2.53;;;5.00;99.90;;;;;;5113217;28;20170;-62
2022/01/06 10:46:45;;;;;;;12.87;1.93;;;5.20;99.90;;;;;;5112038;28;20525;-62
2022/01/06 10:49:13;;;;;;;7.60;2.33;;;5.30;99.90;;;;;;5112924;27;20175;-63
2022/01/06 10:51:41;;;;;;;8.30;1.90;;;5.30;99.90;;;;;;5112933;28;20168;-62
2022/01/06 10:54:22;;;;;;;10.30;2.07;;;5.30;99.90;;;;;;5113238;28;20168;-62
2022/01/06 10:57:09;;;;;;;12.90;2.10;;;5.40;99.90;;;;;;5113269;28;20298;-62
2022/01/06 10:59:35;;;;;;;11.97;2.33;;;5.40;99.90;;;;;;5113073;28;20218;-62
2022/01/06 11:02:02;;;;;;;8.63;1.70;;;5.40;99.90;;;;;;5113010;28;20167;-62
2022/01/06 11:04:30;;;;;;;13.23;2.40;;;5.40;99.90;;;;;;5112937;28;20179;-62
2022/01/06 11:06:56;;;;;;;12.23;2.20;;;5.40;99.90;;;;;;5112905;28;20171;-62
2022/01/06 11:09:22;;;;;;;9.43;1.87;;;5.50;99.90;;;;;;5112709;28;20194;-62
2022/01/06 11:14:26;;;;;;;12.00;2.13;;;5.60;99.90;;;;;;5100364;28;20225;-62
2022/01/06 11:16:52;;;;;;;11.77;2.30;;;5.50;99.90;;;;;;5092378;28;20176;-62
2022/01/06 11:19:21;;;;;;;12.20;2.00;;;5.50;99.90;;;;;;5092238;28;20218;-62
2022/01/06 11:21:48;;;;;;;10.90;2.27;;;5.60;99.90;;;;;;5092241;28;20167;-62
2022/01/06 11:24:20;;;;;;;15.20;2.50;;;5.60;99.90;;;;;;5092182;28;20203;-62
2022/01/06 11:27:05;;;;;;;11.93;2.30;;;5.70;99.90;;;;;;5092036;28;20168;-62
2022/01/06 11:29:44;;;;;;;9.13;2.10;;;5.80;99.90;;;;;;5091959;28;20172;-62
2022/01/06 11:32:21;;;;;;;9.67;2.10;;;5.80;99.90;;;;;;5092010;28;20175;-62
2022/01/06 11:34:49;;;;;;;12.13;1.27;;;5.90;99.90;;;;;;5091953;28;20168;-63
2022/01/06 11:37:16;;;;;;;6.13;1.20;;;6.10;99.90;;;;;;5092407;28;20310;-63
2022/01/06 11:39:43;;;;;;;11.13;1.67;;;6.40;99.90;;;;;;5095699;28;20175;-62
2022/01/06 11:42:18;;;;;;;4.13;0.93;;;6.60;99.90;;;;;;5095296;28;20168;-62
2022/01/06 11:44:53;;;;;;;5.77;1.00;;;6.70;99.90;;;;;;5091736;28;20171;-62
2022/01/06 11:47:36;;;;;;;5.23;1.00;;;6.80;99.90;;;;;;5092837;28;20539;-63
2022/01/06 11:50:34;;;;;;;6.80;1.10;;;6.80;99.90;;;;;;5112104;28;20699;-63
2022/01/06 11:53:01;;;;;;;4.50;0.73;;;6.90;99.90;;;;;;5096521;28;20650;-63
2022/01/06 11:55:33;;;;;;;9.10;1.50;;;6.90;99.90;;;;;;5091425;28;20191;-63
2022/01/06 11:58:14;;;;;;;5.80;1.13;;;7.00;99.90;;;;;;5097884;28;20200;-63
2022/01/06 12:00:56;;;;;;;7.20;1.10;;;7.00;99.90;;;;;;5111630;28;20178;-63
2022/01/06 12:03:21;;;;;;;0.47;0.27;;;7.00;99.90;;;;;;5107415;28;20167;-63
2022/01/06 12:05:52;;;;;;;2.97;1.00;;;7.00;99.90;;;;;;5096962;28;20591;-63
2022/01/06 12:08:20;;;;;;;5.17;1.50;;;7.00;99.90;;;;;;5099315;28;20715;-63
2022/01/06 12:10:51;;;;;;;2.70;0.70;;;6.90;99.90;;;;;;5091712;28;20167;-63
2022/01/06 12:13:18;;;;;;;3.23;0.83;;;6.90;99.90;;;;;;5103068;28;20167;-63
2022/01/06 12:15:56;;;;;;;8.63;1.53;;;6.90;99.90;;;;;;5091495;28;20275;-66
2022/01/06 12:18:25;;;;;;;10.33;0.70;;;6.90;99.90;;;;;;5110944;28;20207;-64
2022/01/06 12:20:53;;;;;;;8.67;1.30;;;6.90;99.90;;;;;;5108551;28;20175;-64
2022/01/06 12:23:22;;;;;;;5.53;1.00;;;6.90;99.90;;;;;;5091131;28;20200;-64
2022/01/06 12:26:14;;;;;;;7.20;1.10;;;6.90;99.90;;;;;;5095079;28;20198;-65
2022/01/06 12:28:50;;;;;;;5.47;0.80;;;7.20;99.90;;;;;;5098760;28;20198;-64
2022/01/06 12:31:26;;;;;;;2.00;0.67;;;6.90;99.90;;;;;;5108138;28;20178;-64
2022/01/06 12:33:58;;;;;;;6.37;1.27;;;6.90;99.90;;;;;;5106614;28;20202;-64
2022/01/06 12:36:24;;;;;;;2.37;0.80;;;7.10;99.90;;;;;;5108572;28;20250;-64
2022/01/06 12:38:50;;;;;;;9.30;1.53;;;6.90;99.90;;;;;;5110801;28;20231;-62
2022/01/06 12:41:28;;;;;;;8.40;1.17;;;6.90;99.90;;;;;;5111277;28;20313;-64
2022/01/06 12:43:55;;;;;;;14.60;2.33;;;7.00;99.90;;;;;;5103731;28;20602;-64
2022/01/06 12:46:23;;;;;;;7.63;1.33;;;6.90;99.90;;;;;;5107033;28;20171;-65
2022/01/06 12:48:51;;;;;;;9.33;1.50;;;6.90;99.90;;;;;;5099584;28;20175;-63
2022/01/06 12:51:21;;;;;;;7.27;1.30;;;6.90;99.90;;;;;;5091934;28;20171;-63
2022/01/06 12:53:50;;;;;;;5.90;1.07;;;6.90;99.90;;;;;;5090626;28;20184;-63
2022/01/06 12:56:27;;;;;;;5.10;0.90;;;6.90;99.90;;;;;;5094965;28;20171;-63
2022/01/06 12:58:55;;;;;;;14.93;1.47;;;6.90;99.90;;;;;;5109274;28;20272;-63
2022/01/06 13:01:21;;;;;;;9.83;1.40;;;7.00;99.90;;;;;;5094086;28;20183;-63
2022/01/06 13:03:53;;;;;;;14.17;1.53;;;6.90;99.90;;;;;;5092881;28;20188;-63
2022/01/06 13:06:21;;;;;;;11.53;1.20;;;6.90;99.90;;;;;;5090420;28;20179;-63
2022/01/06 13:08:58;;;;;;;6.83;1.20;;;7.00;99.90;;;;;;5090551;28;20723;-64